sensor_id;sensor_type;location;lat;lon;timestamp;pressure;altitude;pressure_sealevel;temperature
70050;BMP180;57391;51.306;22.680;2022-10-04T00:02:27;99170.20;;;8.74
70050;BMP180;57391;51.306;22.680;2022-10-04T00:05:07;99176.80;;;8.80
70050;BMP180;57391;51.306;22.680;2022-10-04T00:07:50;99175.20;;;8.90
70050;BMP180;57391;51.306;22.680;2022-10-04T00:13:00;99168.80;;;9.00
70050;BMP180;57391;51.306;22.680;2022-10-04T00:15:33;99165.60;;;9.00
70050;BMP180;57391;51.306;22.680;2022-10-04T00:21:04;99164.00;;;9.10
70050;BMP180;57391;51.306;22.680;2022-10-04T00:26:09;99158.60;;;9.20
70050;BMP180;57391;51.306;22.680;2022-10-04T00:31:26;99158.20;;;9.30
70050;BMP180;57391;51.306;22.680;2022-10-04T00:36:54;99156.20;;;9.40
70050;BMP180;57391;51.306;22.680;2022-10-04T00:45:17;99151.40;;;9.50
70050;BMP180;57391;51.306;22.680;2022-10-04T00:50:36;99152.00;;;9.50
70050;BMP180;57391;51.306;22.680;2022-10-04T00:53:37;99154.60;;;9.60
70050;BMP180;57391;51.306;22.680;2022-10-04T00:56:19;99159.80;;;9.60
70050;BMP180;57391;51.306;22.680;2022-10-04T01:04:57;99164.00;;;9.62
70050;BMP180;57391;51.306;22.680;2022-10-04T01:07:36;99161.80;;;9.68
70050;BMP180;57391;51.306;22.680;2022-10-04T01:10:24;99163.00;;;9.70
70050;BMP180;57391;51.306;22.680;2022-10-04T01:13:24;99165.60;;;9.70
70050;BMP180;57391;51.306;22.680;2022-10-04T01:16:33;99163.40;;;9.70
70050;BMP180;57391;51.306;22.680;2022-10-04T01:22:09;99168.00;;;9.70
70050;BMP180;57391;51.306;22.680;2022-10-04T01:24:43;99171.80;;;9.70
70050;BMP180;57391;51.306;22.680;2022-10-04T01:27:43;99172.40;;;9.70
70050;BMP180;57391;51.306;22.680;2022-10-04T01:30:16;99164.20;;;9.70
70050;BMP180;57391;51.306;22.680;2022-10-04T01:32:43;99170.80;;;9.70
70050;BMP180;57391;51.306;22.680;2022-10-04T01:35:14;99169.00;;;9.70
70050;BMP180;57391;51.306;22.680;2022-10-04T01:37:41;99165.20;;;9.70
70050;BMP180;57391;51.306;22.680;2022-10-04T01:40:10;99167.00;;;9.70
70050;BMP180;57391;51.306;22.680;2022-10-04T01:42:45;99169.00;;;9.70
70050;BMP180;57391;51.306;22.680;2022-10-04T01:45:29;99167.60;;;9.70
70050;BMP180;57391;51.306;22.680;2022-10-04T01:48:02;99168.20;;;9.70
70050;BMP180;57391;51.306;22.680;2022-10-04T01:50:40;99172.00;;;9.60
70050;BMP180;57391;51.306;22.680;2022-10-04T01:53:30;99169.00;;;9.60
70050;BMP180;57391;51.306;22.680;2022-10-04T01:56:20;99171.40;;;9.50
70050;BMP180;57391;51.306;22.680;2022-10-04T01:59:01;99177.60;;;9.50
70050;BMP180;57391;51.306;22.680;2022-10-04T02:01:42;99177.00;;;9.40
70050;BMP180;57391;51.306;22.680;2022-10-04T02:04:18;99184.00;;;9.40
70050;BMP180;57391;51.306;22.680;2022-10-04T02:06:50;99179.80;;;9.30
70050;BMP180;57391;51.306;22.680;2022-10-04T02:09:34;99183.40;;;9.30
70050;BMP180;57391;51.306;22.680;2022-10-04T02:12:04;99180.80;;;9.20
70050;BMP180;57391;51.306;22.680;2022-10-04T02:14:36;99185.60;;;9.14
70050;BMP180;57391;51.306;22.680;2022-10-04T02:17:07;99187.60;;;9.10
70050;BMP180;57391;51.306;22.680;2022-10-04T02:19:40;99191.80;;;9.08
70050;BMP180;57391;51.306;22.680;2022-10-04T02:22:10;99188.40;;;9.00
70050;BMP180;57391;51.306;22.680;2022-10-04T02:24:42;99190.60;;;9.00
70050;BMP180;57391;51.306;22.680;2022-10-04T02:27:11;99186.20;;;8.90
70050;BMP180;57391;51.306;22.680;2022-10-04T02:29:38;99186.40;;;8.90
70050;BMP180;57391;51.306;22.680;2022-10-04T02:32:08;99191.20;;;8.90
70050;BMP180;57391;51.306;22.680;2022-10-04T02:34:56;99188.20;;;8.90
70050;BMP180;57391;51.306;22.680;2022-10-04T02:37:26;99192.40;;;8.90
70050;BMP180;57391;51.306;22.680;2022-10-04T02:40:06;99184.60;;;8.90
70050;BMP180;57391;51.306;22.680;2022-10-04T02:42:45;99180.20;;;9.00
70050;BMP180;57391;51.306;22.680;2022-10-04T02:48:25;99192.20;;;9.00
70050;BMP180;57391;51.306;22.680;2022-10-04T02:51:04;99191.80;;;9.00
70050;BMP180;57391;51.306;22.680;2022-10-04T02:54:05;99188.60;;;9.02
70050;BMP180;57391;51.306;22.680;2022-10-04T02:56:37;99192.80;;;9.10
70050;BMP180;57391;51.306;22.680;2022-10-04T02:59:06;99194.40;;;9.10
70050;BMP180;57391;51.306;22.680;2022-10-04T03:01:49;99191.80;;;9.10
70050;BMP180;57391;51.306;22.680;2022-10-04T03:04:24;99201.00;;;9.12
70050;BMP180;57391;51.306;22.680;2022-10-04T03:06:53;99197.00;;;9.20
70050;BMP180;57391;51.306;22.680;2022-10-04T03:09:23;99197.20;;;9.20
70050;BMP180;57391;51.306;22.680;2022-10-04T03:11:52;99202.80;;;9.20
70050;BMP180;57391;51.306;22.680;2022-10-04T03:14:26;99204.00;;;9.24
70050;BMP180;57391;51.306;22.680;2022-10-04T03:17:01;99205.60;;;9.30
70050;BMP180;57391;51.306;22.680;2022-10-04T03:19:31;99197.20;;;9.30
70050;BMP180;57391;51.306;22.680;2022-10-04T03:22:08;99200.80;;;9.30
70050;BMP180;57391;51.306;22.680;2022-10-04T03:24:46;99202.60;;;9.40
70050;BMP180;57391;51.306;22.680;2022-10-04T03:27:21;99203.60;;;9.40
70050;BMP180;57391;51.306;22.680;2022-10-04T03:29:53;99203.60;;;9.40
70050;BMP180;57391;51.306;22.680;2022-10-04T03:32:21;99200.60;;;9.50
70050;BMP180;57391;51.306;22.680;2022-10-04T03:35:06;99201.80;;;9.50
70050;BMP180;57391;51.306;22.680;2022-10-04T03:37:36;99197.00;;;9.56
